createdAt,value
2022-09-24T00:00:11.699Z,24.03
2022-09-24T00:02:38.082Z,24.04
2022-09-24T00:05:04.390Z,24.02
2022-09-24T00:07:30.733Z,24.00
2022-09-24T00:09:57.077Z,24.01
2022-09-24T00:12:23.421Z,23.99
2022-09-24T00:14:49.754Z,23.99
2022-09-24T00:17:16.090Z,23.98
2022-09-24T00:19:42.440Z,24.01
2022-09-24T00:22:08.778Z,23.98
2022-09-24T00:24:35.119Z,23.97
2022-09-24T00:27:01.463Z,23.97
2022-09-24T00:29:27.806Z,23.98
2022-09-24T00:31:54.222Z,23.97
2022-09-24T00:34:20.498Z,23.96
2022-09-24T00:36:46.960Z,23.96
2022-09-24T00:39:13.191Z,23.96
2022-09-24T00:41:39.543Z,23.94
2022-09-24T00:44:05.907Z,23.95
2022-09-24T00:46:32.273Z,23.92
2022-09-24T00:48:58.591Z,23.94
2022-09-24T00:51:24.930Z,23.94
2022-09-24T00:53:51.275Z,23.90
2022-09-24T00:56:17.619Z,23.91
2022-09-24T00:58:43.962Z,23.91
2022-09-24T01:01:10.500Z,23.90
2022-09-24T01:03:36.665Z,23.89
2022-09-24T01:06:03.014Z,23.90
2022-09-24T01:08:29.369Z,23.89
2022-09-24T01:10:55.712Z,23.89
2022-09-24T01:13:22.091Z,23.89
2022-09-24T01:15:48.495Z,23.90
2022-09-24T01:18:14.825Z,23.89
2022-09-24T01:20:41.188Z,23.87
2022-09-24T01:23:07.527Z,23.86
2022-09-24T01:25:33.866Z,23.85
2022-09-24T01:28:00.224Z,23.84
2022-09-24T01:30:26.571Z,23.85
2022-09-24T01:32:52.914Z,23.83
2022-09-24T01:35:19.256Z,23.84
2022-09-24T01:37:45.609Z,23.85
2022-09-24T01:40:12.000Z,23.84
2022-09-24T01:42:38.294Z,23.83
2022-09-24T01:45:04.636Z,23.83
2022-09-24T01:47:34.426Z,23.82
2022-09-24T01:49:57.329Z,23.83
2022-09-24T01:52:23.683Z,23.82
2022-09-24T01:54:50.022Z,23.81
2022-09-24T01:57:18.711Z,23.80
2022-09-24T01:59:45.062Z,23.80
2022-09-24T02:02:11.467Z,23.80
2022-09-24T02:04:37.751Z,23.80
2022-09-24T02:07:04.118Z,23.80
2022-09-24T02:09:30.456Z,23.79
2022-09-24T02:11:56.809Z,23.79
2022-09-24T02:14:23.144Z,23.77
2022-09-24T02:16:49.486Z,23.76
2022-09-24T02:19:15.904Z,23.77
2022-09-24T02:21:42.244Z,23.76
2022-09-24T02:24:08.639Z,23.79
2022-09-24T02:26:34.929Z,23.75
2022-09-24T02:29:01.252Z,23.77
2022-09-24T02:31:27.659Z,23.76
2022-09-24T02:33:53.948Z,23.75
2022-09-24T02:36:20.291Z,23.77
2022-09-24T02:38:46.645Z,23.74
2022-09-24T02:41:13.018Z,23.74
2022-09-24T02:43:39.361Z,23.72
2022-09-24T02:46:05.785Z,23.73
2022-09-24T02:48:32.057Z,23.72
2022-09-24T02:50:58.401Z,23.73
2022-09-24T02:53:24.780Z,23.71
2022-09-24T02:55:51.129Z,23.71
2022-09-24T02:58:17.471Z,23.70
2022-09-24T03:00:43.855Z,23.70
2022-09-24T03:03:10.285Z,23.72
2022-09-24T03:05:36.537Z,23.70
2022-09-24T03:08:02.870Z,23.71
2022-09-24T03:10:29.227Z,23.69
2022-09-24T03:12:55.566Z,23.70
2022-09-24T03:15:23.053Z,23.70
2022-09-24T03:17:49.390Z,23.68
2022-09-24T03:20:15.743Z,23.68
2022-09-24T03:22:42.087Z,23.67
2022-09-24T03:25:08.437Z,23.67
2022-09-24T03:27:34.786Z,23.66
2022-09-24T03:30:01.131Z,23.66
2022-09-24T03:32:27.474Z,23.66
2022-09-24T03:34:53.830Z,23.65
2022-09-24T03:37:20.169Z,23.65
2022-09-24T03:39:46.511Z,23.64
2022-09-24T03:42:12.852Z,23.65
2022-09-24T03:44:39.202Z,23.65
2022-09-24T03:47:05.559Z,23.62
2022-09-24T03:49:33.171Z,23.64
2022-09-24T03:51:58.235Z,23.64
2022-09-24T03:54:24.579Z,23.64
2022-09-24T03:56:50.925Z,23.61
2022-09-24T03:59:17.306Z,23.60
2022-09-24T04:01:43.687Z,23.62
2022-09-24T04:04:10.011Z,23.61
2022-09-24T04:06:36.346Z,23.59
2022-09-24T04:09:02.692Z,23.60
2022-09-24T04:11:29.031Z,23.60
2022-09-24T04:13:55.387Z,23.59
2022-09-24T04:16:21.842Z,23.61
2022-09-24T04:18:48.075Z,23.57
2022-09-24T04:21:14.415Z,23.59
2022-09-24T04:23:40.755Z,23.57
2022-09-24T04:26:07.104Z,23.57
2022-09-24T04:28:33.519Z,23.57
2022-09-24T04:30:59.912Z,23.57
2022-09-24T04:33:26.208Z,23.59
2022-09-24T04:35:52.551Z,23.57
2022-09-24T04:38:18.895Z,23.57
2022-09-24T04:40:45.324Z,23.58
2022-09-24T04:43:11.612Z,23.57
2022-09-24T04:45:40.410Z,23.56
2022-09-24T04:48:06.759Z,23.57
2022-09-24T04:50:33.111Z,23.57
2022-09-24T04:52:59.455Z,23.55
2022-09-24T04:55:25.803Z,23.56
2022-09-24T04:57:52.150Z,23.57
2022-09-24T05:00:18.527Z,23.58
2022-09-24T05:02:45.000Z,23.55
2022-09-24T05:05:11.213Z,23.55
2022-09-24T05:07:37.558Z,23.53
2022-09-24T05:10:03.904Z,23.52
2022-09-24T05:12:30.274Z,23.52
2022-09-24T05:14:56.617Z,23.50
2022-09-24T05:17:22.968Z,23.50
2022-09-24T05:19:49.309Z,23.49
2022-09-24T05:22:15.646Z,23.51
2022-09-24T05:24:42.017Z,23.49
2022-09-24T05:27:08.326Z,23.47
2022-09-24T05:29:34.698Z,23.45
2022-09-24T05:32:01.048Z,23.43
2022-09-24T05:34:27.390Z,23.43
2022-09-24T05:36:53.757Z,23.43
2022-09-24T05:39:20.103Z,23.42
2022-09-24T05:41:46.445Z,23.40
2022-09-24T05:44:12.786Z,23.40
2022-09-24T05:46:39.196Z,23.40
2022-09-24T05:49:05.524Z,23.38
2022-09-24T05:51:31.909Z,23.37
2022-09-24T05:53:59.247Z,23.37
2022-09-24T05:56:24.588Z,23.37
2022-09-24T05:58:50.922Z,23.35
2022-09-24T06:01:17.269Z,23.36
2022-09-24T06:03:43.605Z,23.37
2022-09-24T06:06:09.951Z,23.31
2022-09-24T06:08:36.285Z,23.34
2022-09-24T06:11:02.667Z,23.32
2022-09-24T06:13:28.972Z,23.31
2022-09-24T06:15:55.355Z,23.31
2022-09-24T06:18:21.661Z,23.31
2022-09-24T06:20:47.997Z,23.30
2022-09-24T06:23:14.348Z,23.31
2022-09-24T06:25:40.694Z,23.30
2022-09-24T06:28:07.027Z,23.30
2022-09-24T06:30:33.443Z,23.29
2022-09-24T06:32:59.780Z,23.30
2022-09-24T06:35:26.131Z,23.30
2022-09-24T06:37:52.470Z,23.30
2022-09-24T06:40:21.947Z,23.31
2022-09-24T06:42:48.261Z,23.28
2022-09-24T06:45:14.610Z,23.30
2022-09-24T06:50:25.337Z,23.30
2022-09-24T06:52:51.606Z,23.28
2022-09-24T06:55:17.992Z,23.31
2022-09-24T06:57:44.341Z,23.28
2022-09-24T07:00:10.698Z,23.29
2022-09-24T07:02:37.105Z,23.28
2022-09-24T07:05:03.402Z,23.28
2022-09-24T07:07:29.740Z,23.26
2022-09-24T07:09:56.098Z,23.30
2022-09-24T07:12:22.451Z,23.28
2022-09-24T07:14:48.816Z,23.32
2022-09-24T07:17:15.165Z,23.30
2022-09-24T07:19:41.544Z,23.28
2022-09-24T07:22:07.905Z,23.29
2022-09-24T07:24:34.243Z,23.28
2022-09-24T07:27:00.593Z,23.28
2022-09-24T07:29:26.941Z,23.29
2022-09-24T07:31:53.294Z,23.31
2022-09-24T07:34:19.648Z,23.28
2022-09-24T07:36:46.016Z,23.30
2022-09-24T07:39:12.370Z,23.29
2022-09-24T07:41:42.027Z,23.30
2022-09-24T07:44:05.120Z,23.30
2022-09-24T07:46:31.464Z,23.31
2022-09-24T07:48:57.754Z,23.30
2022-09-24T07:51:24.104Z,23.34
2022-09-24T07:53:50.448Z,23.34
2022-09-24T07:56:16.839Z,23.35
2022-09-24T07:58:43.182Z,23.35
2022-09-24T08:01:09.530Z,23.37
2022-09-24T08:03:35.975Z,23.36
2022-09-24T08:06:02.232Z,23.37
2022-09-24T08:08:28.595Z,23.38
2022-09-24T08:10:54.939Z,23.39
2022-09-24T08:13:26.734Z,23.36
2022-09-24T08:15:47.693Z,23.38
2022-09-24T08:18:14.003Z,23.39
2022-09-24T08:20:40.354Z,23.39
2022-09-24T08:23:06.708Z,23.38
2022-09-24T08:25:33.097Z,23.39
2022-09-24T08:27:59.449Z,23.38
2022-09-24T08:30:25.809Z,23.40
2022-09-24T08:32:52.201Z,23.39
2022-09-24T08:35:18.542Z,23.39
2022-09-24T08:37:44.931Z,23.39
2022-09-24T08:40:11.314Z,23.40
2022-09-24T08:42:37.637Z,23.40
2022-09-24T08:45:03.975Z,23.41
2022-09-24T08:47:30.329Z,23.38
2022-09-24T08:49:56.685Z,23.42
2022-09-24T08:52:23.030Z,23.43
2022-09-24T08:54:49.381Z,23.42
2022-09-24T08:57:15.730Z,23.43
2022-09-24T08:59:42.076Z,23.43
2022-09-24T09:02:08.543Z,23.44
2022-09-24T09:04:34.828Z,23.42
2022-09-24T09:07:01.263Z,23.44
2022-09-24T09:09:27.533Z,23.44
2022-09-24T09:11:53.886Z,23.44
2022-09-24T09:14:20.256Z,23.46
2022-09-24T09:16:46.613Z,23.46
2022-09-24T09:19:12.968Z,23.46
2022-09-24T09:21:39.302Z,23.45
2022-09-24T09:24:05.654Z,23.49
2022-09-24T09:26:32.005Z,23.46
2022-09-24T09:28:58.351Z,23.49
2022-09-24T09:31:25.053Z,23.51
2022-09-24T09:33:51.358Z,23.51
2022-09-24T09:36:17.706Z,23.50
2022-09-24T09:38:44.065Z,23.52
2022-09-24T09:41:10.417Z,23.51
2022-09-24T09:43:36.761Z,23.52
2022-09-24T09:46:03.198Z,23.53
2022-09-24T09:48:29.495Z,23.53
2022-09-24T09:50:55.843Z,23.52
2022-09-24T09:53:22.206Z,23.55
2022-09-24T09:55:48.570Z,23.53
2022-09-24T09:58:14.913Z,23.55
2022-09-24T10:00:42.109Z,23.58
2022-09-24T10:03:08.504Z,23.61
2022-09-24T10:05:34.833Z,23.59
2022-09-24T10:08:01.183Z,23.60
2022-09-24T10:10:27.560Z,23.64
2022-09-24T10:12:53.909Z,23.65
2022-09-24T10:15:20.264Z,23.65
2022-09-24T10:17:46.629Z,23.69
2022-09-24T10:20:12.981Z,23.68
2022-09-24T10:22:39.325Z,23.70
2022-09-24T10:25:05.690Z,23.72
2022-09-24T10:27:32.062Z,23.71
2022-09-24T10:29:58.443Z,23.76
2022-09-24T10:32:24.793Z,23.77
2022-09-24T10:34:51.162Z,23.80
2022-09-24T10:37:17.509Z,23.82
2022-09-24T10:39:43.861Z,23.81
2022-09-24T10:42:10.217Z,23.85
2022-09-24T10:44:36.584Z,23.87
2022-09-24T10:47:03.007Z,23.89
2022-09-24T10:49:29.279Z,23.92
2022-09-24T10:51:55.629Z,23.96
2022-09-24T10:54:21.974Z,24.00
2022-09-24T10:56:48.338Z,24.02
2022-09-24T10:59:14.703Z,24.05
2022-09-24T11:01:41.116Z,24.09
2022-09-24T11:04:07.516Z,24.13
2022-09-24T11:06:33.798Z,24.13
2022-09-24T11:09:00.149Z,24.15
2022-09-24T11:11:26.533Z,24.19
2022-09-24T11:13:52.877Z,24.21
2022-09-24T11:16:19.297Z,24.25
2022-09-24T11:18:45.573Z,24.26
2022-09-24T11:21:11.935Z,24.29
2022-09-24T11:23:38.285Z,24.34
2022-09-24T11:26:04.637Z,24.40
2022-09-24T11:28:30.988Z,24.41
2022-09-24T11:30:57.387Z,24.44
2022-09-24T11:33:23.689Z,24.47
2022-09-24T11:35:50.039Z,24.53
2022-09-24T11:38:16.423Z,24.56
2022-09-24T11:40:42.900Z,24.60
2022-09-24T11:43:09.133Z,24.63
2022-09-24T11:45:35.480Z,24.70
2022-09-24T11:48:01.844Z,24.71
2022-09-24T11:50:28.187Z,24.75
2022-09-24T11:52:54.575Z,24.77
2022-09-24T11:55:20.924Z,24.87
2022-09-24T11:57:47.277Z,24.90
2022-09-24T12:00:13.636Z,24.94
2022-09-24T12:05:24.242Z,25.03
2022-09-24T12:07:50.635Z,25.08
2022-09-24T12:10:16.964Z,25.10
2022-09-24T12:12:43.300Z,25.16
2022-09-24T12:15:09.642Z,25.23
2022-09-24T12:17:35.973Z,25.31
2022-09-24T12:20:02.359Z,25.35
2022-09-24T12:22:28.694Z,25.48
2022-09-24T12:24:55.048Z,25.74
2022-09-24T12:27:21.381Z,25.84
2022-09-24T12:29:47.726Z,25.93
2022-09-24T12:32:14.062Z,26.20
2022-09-24T12:34:40.397Z,26.41
2022-09-24T12:37:06.749Z,26.55
2022-09-24T12:39:33.092Z,27.53
2022-09-24T12:41:59.433Z,27.94
2022-09-24T12:44:25.772Z,27.89
2022-09-24T12:46:52.276Z,28.38
2022-09-24T12:49:18.462Z,28.65
2022-09-24T12:51:44.775Z,28.65
2022-09-24T12:54:11.131Z,27.23
2022-09-24T12:56:37.459Z,26.70
2022-09-24T12:59:03.801Z,26.55
2022-09-24T13:01:30.289Z,26.52
2022-09-24T13:03:56.547Z,26.57
2022-09-24T13:06:22.877Z,26.55
2022-09-24T13:08:49.247Z,27.39
2022-09-24T13:11:15.582Z,28.73
2022-09-24T13:13:41.953Z,28.94
2022-09-24T13:16:08.321Z,29.07
2022-09-24T13:18:34.636Z,29.26
2022-09-24T13:21:00.978Z,29.38
2022-09-24T13:23:27.334Z,29.52
2022-09-24T13:25:53.697Z,29.67
2022-09-24T13:28:20.041Z,29.75
2022-09-24T13:30:46.381Z,29.74
2022-09-24T13:33:12.725Z,29.62
2022-09-24T13:35:39.066Z,29.72
2022-09-24T13:38:05.431Z,29.67
2022-09-24T13:40:31.798Z,29.51
2022-09-24T13:42:58.142Z,29.32
2022-09-24T13:45:24.480Z,29.35
2022-09-24T13:47:50.825Z,29.27
2022-09-24T13:50:17.166Z,29.08
2022-09-24T13:52:43.508Z,28.86
2022-09-24T13:55:09.840Z,28.57
2022-09-24T13:57:36.192Z,28.19
2022-09-24T14:00:02.573Z,28.01
2022-09-24T14:02:28.983Z,27.76
2022-09-24T14:04:55.250Z,27.76
2022-09-24T14:07:21.597Z,27.67
2022-09-24T14:09:47.940Z,27.19
2022-09-24T14:12:14.291Z,26.83
2022-09-24T14:14:40.634Z,26.73
2022-09-24T14:17:07.018Z,26.69
2022-09-24T14:19:33.331Z,26.65
2022-09-24T14:21:59.676Z,26.63
2022-09-24T14:24:26.012Z,26.56
2022-09-24T14:26:53.652Z,26.53
2022-09-24T14:29:18.743Z,26.48
2022-09-24T14:31:45.077Z,26.46
2022-09-24T14:34:11.419Z,26.42
2022-09-24T14:36:37.761Z,26.38
2022-09-24T14:39:04.183Z,26.35
2022-09-24T14:41:30.438Z,26.37
2022-09-24T14:43:56.771Z,26.37
2022-09-24T14:46:23.192Z,26.32
2022-09-24T14:48:49.467Z,26.33
2022-09-24T14:51:15.877Z,26.31
2022-09-24T14:53:42.225Z,26.30
2022-09-24T14:56:08.570Z,26.27
2022-09-24T14:58:34.911Z,26.24
2022-09-24T15:01:01.253Z,26.21
2022-09-24T15:03:27.593Z,26.25
2022-09-24T15:05:54.039Z,26.23
2022-09-24T15:08:20.279Z,26.25
2022-09-24T15:10:46.619Z,26.25
2022-09-24T15:13:12.974Z,26.28
2022-09-24T15:15:39.334Z,26.33
2022-09-24T15:18:05.652Z,26.32
2022-09-24T15:20:32.003Z,26.35
2022-09-24T15:22:58.359Z,26.36
2022-09-24T15:25:24.699Z,26.34
2022-09-24T15:27:51.032Z,26.30
2022-09-24T15:30:17.379Z,26.36
2022-09-24T15:32:43.712Z,26.34
2022-09-24T15:35:10.055Z,26.33
2022-09-24T15:37:36.388Z,26.33
2022-09-24T15:40:02.734Z,26.26
2022-09-24T15:42:29.080Z,26.22
2022-09-24T15:44:55.428Z,26.24
2022-09-24T15:47:21.765Z,26.09
2022-09-24T15:49:48.146Z,25.99
2022-09-24T15:52:14.478Z,25.83
2022-09-24T15:54:40.821Z,25.82
2022-09-24T15:57:07.178Z,25.80
2022-09-24T15:59:33.510Z,25.82
2022-09-24T16:01:59.886Z,25.88
2022-09-24T16:04:26.185Z,25.89
2022-09-24T16:06:52.522Z,25.89
2022-09-24T16:09:18.865Z,25.89
2022-09-24T16:11:45.196Z,25.86
2022-09-24T16:14:11.542Z,25.83
2022-09-24T16:16:38.874Z,25.83
2022-09-24T16:19:04.234Z,25.81
2022-09-24T16:21:30.570Z,25.78
2022-09-24T16:23:58.145Z,25.78
2022-09-24T16:26:23.248Z,25.75
2022-09-24T16:28:49.610Z,25.75
2022-09-24T16:31:16.025Z,25.73
2022-09-24T16:33:42.283Z,25.69
2022-09-24T16:36:08.614Z,25.68
2022-09-24T16:38:34.985Z,25.65
2022-09-24T16:41:01.364Z,25.65
2022-09-24T16:43:27.687Z,25.64
2022-09-24T16:45:54.047Z,25.63
2022-09-24T16:48:20.396Z,25.62
2022-09-24T16:50:46.753Z,25.61
2022-09-24T16:53:15.062Z,25.59
2022-09-24T16:55:39.425Z,25.57
2022-09-24T16:58:05.774Z,25.56
2022-09-24T17:00:32.118Z,25.57
2022-09-24T17:02:58.523Z,25.53
2022-09-24T17:05:24.827Z,25.52
2022-09-24T17:07:51.161Z,25.49
2022-09-24T17:10:17.496Z,25.50
2022-09-24T17:12:43.843Z,25.48
2022-09-24T17:15:10.176Z,25.48
2022-09-24T17:17:44.308Z,25.46
2022-09-24T17:20:02.853Z,25.46
2022-09-24T17:22:29.189Z,25.45
2022-09-24T17:24:55.521Z,25.45
2022-09-24T17:27:21.862Z,25.43
2022-09-24T17:29:48.198Z,25.42
2022-09-24T17:32:14.539Z,25.39
2022-09-24T17:34:45.551Z,25.42
2022-09-24T17:37:07.251Z,25.39
2022-09-24T17:39:33.584Z,25.39
2022-09-24T17:41:59.921Z,25.38
2022-09-24T17:44:26.267Z,25.36
2022-09-24T17:46:53.624Z,25.35
2022-09-24T17:49:18.934Z,25.36
2022-09-24T17:51:45.279Z,25.37
2022-09-24T17:54:11.645Z,25.35
2022-09-24T17:56:37.989Z,25.35
2022-09-24T17:59:04.335Z,25.34
2022-09-24T18:01:30.772Z,25.34
2022-09-24T18:03:57.042Z,25.34
2022-09-24T18:06:23.384Z,25.35
2022-09-24T18:08:49.717Z,25.32
2022-09-24T18:11:16.068Z,25.33
2022-09-24T18:13:42.407Z,25.33
2022-09-24T18:16:08.817Z,25.31
2022-09-24T18:18:35.069Z,25.31
2022-09-24T18:21:01.456Z,25.33
2022-09-24T18:23:27.797Z,25.32
2022-09-24T18:25:54.179Z,25.34
2022-09-24T18:28:20.478Z,25.32
2022-09-24T18:30:47.183Z,25.29
2022-09-24T18:33:13.465Z,25.32
2022-09-24T18:35:39.835Z,25.31
2022-09-24T18:38:06.168Z,25.28
2022-09-24T18:40:32.593Z,25.27
2022-09-24T18:42:58.853Z,25.24
2022-09-24T18:45:25.185Z,25.25
2022-09-24T18:47:51.535Z,25.24
2022-09-24T18:50:17.877Z,25.23
2022-09-24T18:52:44.250Z,25.27
2022-09-24T18:55:10.580Z,25.22
2022-09-24T18:57:36.922Z,25.24
2022-09-24T19:00:03.254Z,25.21
2022-09-24T19:02:29.801Z,25.22
2022-09-24T19:04:55.931Z,25.22
2022-09-24T19:07:22.273Z,25.21
2022-09-24T19:09:48.607Z,25.18
2022-09-24T19:12:14.966Z,25.15
2022-09-24T19:14:41.317Z,25.18
2022-09-24T19:17:07.648Z,25.18
2022-09-24T19:19:33.984Z,25.12
2022-09-24T19:22:00.338Z,25.15
2022-09-24T19:24:26.707Z,25.12
2022-09-24T19:26:53.046Z,25.14
2022-09-24T19:29:19.380Z,25.12
2022-09-24T19:31:45.761Z,25.13
2022-09-24T19:34:12.082Z,25.10
2022-09-24T19:36:42.530Z,25.09
2022-09-24T19:39:04.758Z,25.06
2022-09-24T19:41:31.104Z,25.08
2022-09-24T19:43:57.447Z,25.05
2022-09-24T19:46:23.829Z,25.04
2022-09-24T19:48:50.139Z,25.02
2022-09-24T19:51:16.483Z,25.04
2022-09-24T19:53:42.848Z,25.01
2022-09-24T19:56:09.183Z,25.03
2022-09-24T19:58:35.537Z,24.98
2022-09-24T20:01:01.866Z,24.98
2022-09-24T20:03:28.205Z,24.99
2022-09-24T20:05:54.555Z,24.97
2022-09-24T20:08:20.885Z,24.94
2022-09-24T20:10:47.215Z,24.97
2022-09-24T20:13:13.553Z,24.97
2022-09-24T20:15:39.932Z,24.93
2022-09-24T20:18:06.228Z,24.92
2022-09-24T20:20:32.580Z,24.92
2022-09-24T20:22:58.898Z,24.91
2022-09-24T20:25:25.240Z,24.90
2022-09-24T20:27:51.572Z,24.90
2022-09-24T20:30:17.915Z,24.90
2022-09-24T20:32:44.260Z,24.87
2022-09-24T20:35:10.593Z,24.88
2022-09-24T20:37:36.927Z,24.86
2022-09-24T20:40:03.272Z,24.87
2022-09-24T20:42:30.939Z,24.85
2022-09-24T20:44:55.943Z,24.85
2022-09-24T20:47:22.279Z,24.84
2022-09-24T20:49:48.611Z,24.84
2022-09-24T20:52:14.944Z,24.82
2022-09-24T20:54:41.285Z,24.80
2022-09-24T20:57:07.631Z,24.80
2022-09-24T20:59:34.010Z,24.77
2022-09-24T21:02:00.414Z,24.78
2022-09-24T21:04:26.684Z,24.78
2022-09-24T21:06:53.024Z,24.76
2022-09-24T21:09:19.362Z,24.76
2022-09-24T21:11:45.697Z,24.76
2022-09-24T21:14:12.121Z,24.76
2022-09-24T21:16:38.432Z,24.75
2022-09-24T21:19:04.751Z,24.74
2022-09-24T21:21:31.118Z,24.74
2022-09-24T21:23:57.474Z,24.74
2022-09-24T21:26:23.810Z,24.73
2022-09-24T21:28:50.155Z,24.72
2022-09-24T21:31:16.573Z,24.71
2022-09-24T21:33:42.836Z,24.69
2022-09-24T21:36:09.168Z,24.70
2022-09-24T21:38:35.523Z,24.68
2022-09-24T21:41:01.863Z,24.66
2022-09-24T21:43:34.440Z,24.68
2022-09-24T21:45:54.598Z,24.68
2022-09-24T21:48:20.965Z,24.69
2022-09-24T21:50:47.307Z,24.70
2022-09-24T21:53:13.647Z,24.64
2022-09-24T21:55:39.991Z,24.64
2022-09-24T21:58:06.327Z,24.62
2022-09-24T22:00:32.672Z,24.63
2022-09-24T22:02:59.098Z,24.64
2022-09-24T22:05:25.354Z,24.62
2022-09-24T22:07:51.700Z,24.62
2022-09-24T22:10:18.046Z,24.58
2022-09-24T22:12:44.400Z,24.60
2022-09-24T22:15:10.747Z,24.59
2022-09-24T22:17:37.094Z,24.59
2022-09-24T22:20:03.430Z,24.58
2022-09-24T22:22:29.779Z,24.57
2022-09-24T22:24:56.138Z,24.58
2022-09-24T22:27:22.552Z,24.58
2022-09-24T22:29:48.948Z,24.57
2022-09-24T22:32:15.348Z,24.58
2022-09-24T22:34:41.755Z,24.56
2022-09-24T22:37:08.146Z,24.55
2022-09-24T22:39:34.544Z,24.54
2022-09-24T22:42:00.947Z,24.55
2022-09-24T22:44:27.337Z,24.53
2022-09-24T22:46:53.739Z,24.53
2022-09-24T22:49:20.174Z,24.50
2022-09-24T22:51:46.578Z,24.53
2022-09-24T22:54:13.084Z,24.51
2022-09-24T22:56:39.370Z,24.50
2022-09-24T22:59:05.774Z,24.49
2022-09-24T23:01:32.312Z,24.48
2022-09-24T23:03:58.450Z,24.49
2022-09-24T23:06:24.783Z,24.47
2022-09-24T23:08:51.136Z,24.46
2022-09-24T23:11:17.481Z,24.47
2022-09-24T23:13:43.809Z,24.46
2022-09-24T23:16:10.147Z,24.45
2022-09-24T23:18:36.498Z,24.46
2022-09-24T23:21:02.819Z,24.45
2022-09-24T23:23:29.165Z,24.43
2022-09-24T23:25:55.511Z,24.45
2022-09-24T23:28:21.850Z,24.41
2022-09-24T23:30:48.274Z,24.43
2022-09-24T23:33:14.534Z,24.40
2022-09-24T23:35:40.878Z,24.41
2022-09-24T23:38:07.253Z,24.40
2022-09-24T23:40:33.643Z,24.41
2022-09-24T23:42:59.948Z,24.40
2022-09-24T23:45:26.282Z,24.40
2022-09-24T23:47:52.625Z,24.40
2022-09-24T23:50:18.967Z,24.38
2022-09-24T23:52:45.308Z,24.40
2022-09-24T23:55:11.664Z,24.36
2022-09-24T23:57:38.000Z,24.36
